• ยินดีต้อนรับทุกท่านเข้าสู่ไทยซีร้อยสามสิบครับ, หากท่านพบปัญหาการใช้งานเว็บไซต์ของเรา
    หรือต้องการเสนอแนะประการใดสามารถโพสแจ้งได้ที่ ฟอรั่ม: Contact us/help info ,ขอบคุณครับ.
    แจ้งข่าวสารการอับเดทฟอรั่ม Thaic-130


    Live support: SKYPIG / Lt.Col.Tirapong Kongsomrit, e-mail: kongsomrit@yahoo.com
    กรุณาปิด โปรแกรมบล๊อกโฆษณา เพราะเราอยู่ได้ด้วยโฆษณาที่ท่านเห็น
    Please close the adblock program. Because we can live with the ads you see

MAY 2012

skypig

Administrator
สมัครเมื่อ
7 มิถุนายน 2010
ข้อความโพสต์
2,485
คะแนนการตอบรับ
0
แต้มสะสม
36
Catch me if u can.
 

ไฟล์แนบ

กรุณาปิด โปรแกรมบล๊อกโฆษณา เพราะเราอยู่ได้ด้วยโฆษณาที่ท่านเห็น
Please close the adblock program. Because we can live with the ads you see

NOOB

Administrator
Staff Member
สมัครเมื่อ
15 มกราคม 2010
ข้อความโพสต์
2,585
คะแนนการตอบรับ
1
แต้มสะสม
38
ขอบคุณครับพี่ เดี๋ยวผมเดือนนี้ย้ายบ้านเสร็จบินตามเหมือนเดิมครับผม.

:Emo_korea_046.gif::Emo_korea_046.gif:
 

skypig

Administrator
สมัครเมื่อ
7 มิถุนายน 2010
ข้อความโพสต์
2,485
คะแนนการตอบรับ
0
แต้มสะสม
36
Try this one
FD3760. Bkk MAA(chennai india) 10 May 2012
 

skypig

Administrator
สมัครเมื่อ
7 มิถุนายน 2010
ข้อความโพสต์
2,485
คะแนนการตอบรับ
0
แต้มสะสม
36
Aviation Digital Data Service (ADDS)

Output produced by TAFs form (0540 UTC 09 May 2012)
found at http://aviationweather.gov/adds/tafs/
 
VOMM 090510Z 21008KT 7000 FEW020 35/23 Q1008 NOSIG
TAF VOMM 090300Z 0906/1012 23010KT 6000 SCT020
BECMG 0909/0910 14010KT
TEMPO 0910/0918 SCT020 FEW025CB SCT100
BECMG 0922/0923 21005KT 4000 HZ
BECMG 1003/1004 6000
BECMG 1009/1010 14010KT
TEMPO 1000/1012 SCT020 FEW025CB SCT100
 

skypig

Administrator
สมัครเมื่อ
7 มิถุนายน 2010
ข้อความโพสต์
2,485
คะแนนการตอบรับ
0
แต้มสะสม
36
VOMM เป็นจุดหมายปลายทาง ที่เพิ่งเปิดใหม่ของแอร์เอเชีย A320
พี่ยังไม่เคยไปมาก่อน นี่จะเป็นไฟลท์ปฐมฤกษ์

การเติมน้ำมัน


เส้นทางบิน

 

ไฟล์แนบ

skypig

Administrator
สมัครเมื่อ
7 มิถุนายน 2010
ข้อความโพสต์
2,485
คะแนนการตอบรับ
0
แต้มสะสม
36
ตามสเก้ทเดิม วันนี้ไม่มีบิน แต่ได้รับเกียรติเรียกให้ไปบิน กว่างโจว zggg
รายงานสภาพอากาศ น่าลุ้น
เมื่อวานบินไป สิงคโปร fd3504 ถูกเรดาร์ vector เข้าไปในCB โอ้วแม่เจ้า
เครื่องA320 เขย่าทั้งลำ ผู้โดยสารบางคนถึงกับ กรี๊ดออกมา
กระจกหน้ากระทบกับเม็ดฝน เสียงดังแป็ะ คล้ายกับจะแตก
ไม่ทันปลุกพระ รีบเลี้ยวออกมาก่อน
รอดมาได้ด้อีกวัน
ววันนี้ดูจาก TAF zggg แล้วแย่กว่าเมื่อวาน

ZGGG 270300Z 07003MPS 020V140 7000 SCT020 BKN050 29/25 Q1008 NOSIG
TAF ZGGG 262103Z 2700/2724 07003MPS 8000 BKN040
TEMPO 2706/2712 2000 TSRA SCT030CB BKN033

VHHH 270330Z 08016KT 9999 FEW020 SCT028 31/24 Q1007 NOSIG
TAF VHHH 262300Z 2700/2806 10010KT 7000 FEW015 SCT030 TX31/2706Z TX30/2806Z TN26/2723Z
TEMPO 2703/2706 4000 SHRA
TEMPO 2721/2803 13015G25KT 3500 -TSRA SHRA FEW008CB SCT015

VMMC 270330Z 10009KT 070V150 9999 FEW015 28/25 Q1007 NOSIG
TAF VMMC 262300Z 2700/2806 11010KT 9000 FEW010 SCT020
TEMPO 2700/2706 3000 SHRA FEW008 SCT012CB BKN040
TEMPO 2715/2724 3000 SHRA FEW008 SCT012CB BKN040
TEMPO 2800/2806 VRB15G25KT 1500 TSRA +SHRA FEW006 SCT010CB BKN035
 

NOOB

Administrator
Staff Member
สมัครเมื่อ
15 มกราคม 2010
ข้อความโพสต์
2,585
คะแนนการตอบรับ
1
แต้มสะสม
38
ตามสเก้ทเดิม วันนี้ไม่มีบิน แต่ได้รับเกียรติเรียกให้ไปบิน กว่างโจว zggg
รายงานสภาพอากาศ น่าลุ้น
เมื่อวานบินไป สิงคโปร fd3504 ถูกเรดาร์ vector เข้าไปในCB โอ้วแม่เจ้า
เครื่องA320 เขย่าทั้งลำ ผู้โดยสารบางคนถึงกับ กรี๊ดออกมา
กระจกหน้ากระทบกับเม็ดฝน เสียงดังแป็ะ คล้ายกับจะแตก
ไม่ทันปลุกพระ รีบเลี้ยวออกมาก่อน
รอดมาได้ด้อีกวัน
ววันนี้ดูจาก TAF zggg แล้วแย่กว่าเมื่อวาน

ZGGG 270300Z 07003MPS 020V140 7000 SCT020 BKN050 29/25 Q1008 NOSIG
TAF ZGGG 262103Z 2700/2724 07003MPS 8000 BKN040
TEMPO 2706/2712 2000 TSRA SCT030CB BKN033

VHHH 270330Z 08016KT 9999 FEW020 SCT028 31/24 Q1007 NOSIG
TAF VHHH 262300Z 2700/2806 10010KT 7000 FEW015 SCT030 TX31/2706Z TX30/2806Z TN26/2723Z
TEMPO 2703/2706 4000 SHRA
TEMPO 2721/2803 13015G25KT 3500 -TSRA SHRA FEW008CB SCT015

VMMC 270330Z 10009KT 070V150 9999 FEW015 28/25 Q1007 NOSIG
TAF VMMC 262300Z 2700/2806 11010KT 9000 FEW010 SCT020
TEMPO 2700/2706 3000 SHRA FEW008 SCT012CB BKN040
TEMPO 2715/2724 3000 SHRA FEW008 SCT012CB BKN040
TEMPO 2800/2806 VRB15G25KT 1500 TSRA +SHRA FEW006 SCT010CB BKN035
นึกแล้วเสียวแทนครับพี่ เดินทางปลอดภัยนะครับกัปตัน

:Emo_korea_046.gif::Emo_korea_046.gif:
 




Flag Counter

กรุณาปิด โปรแกรมบล๊อกโฆษณา เพราะเราอยู่ได้ด้วยโฆษณาที่ท่านเห็น
Please close the adblock program. Because we can live with the ads you see

เกี่ยวกับเรา

  • เว็บไซต์ "www.thaiC-130.net" จัดทำขึ้นเมื่อ 22 กุมภาพันธ์ 2551
    ความสมบูรณ์ของเนื้อหา ยังจำเป็นต้องได้รับการปรับปรุง หากท่านสนใจที่จะร่วมสนับสนุนให้ดียิ่งขึ้น กรุณาติดต่อมายังผู้จัดทำ จะเป็นพระคุณอย่างยิ่ง

ขอขอบพระคุณ

พลอากาศเอก อมฤต จารยะพันธ์
พลอากาศโท ปรีชาพล ผุสสราค์มาลัย
กัปตันสุทิพย์ สิริสรรพ (การบินไทย)
กัปตันยุทธการ ปุรินทราภิบาล (ไทยแอร์เอเชีย)
กัปตันราชันย์ สุดหล้า (ไทยแอร์เอเชีย)
นาวาอากาศโทสุรินทร์ คอทอง
นาวาอากาศตรีขวัญ สุภรสุข
คุณพงษ์ พินิจ นสพ.ไทยรัฐ

ติดต่อเรา



Contact Me
Lt.Col.Tirapong Kongsomrit
kongsomrit@yahoo.com
www.thaic-130.net